sensor_id;sensor_type;location;lat;lon;timestamp;pressure;altitude;pressure_sealevel;temperature;humidity
79174;BME280;68599;49.142;9.124;2024-03-02T00:01:32;98612.83;;;6.73;80.93
79174;BME280;68599;49.142;9.124;2024-03-02T00:03:59;98610.10;;;6.94;78.17
79174;BME280;68599;49.142;9.124;2024-03-02T00:06:25;98612.06;;;7.13;76.83
79174;BME280;68599;49.142;9.124;2024-03-02T00:08:56;98614.12;;;7.17;75.93
79174;BME280;68599;49.142;9.124;2024-03-02T00:11:24;98611.74;;;7.01;75.96
79174;BME280;68599;49.142;9.124;2024-03-02T00:13:52;98611.23;;;7.00;75.55
79174;BME280;68599;49.142;9.124;2024-03-02T00:16:19;98614.81;;;7.00;75.28
79174;BME280;68599;49.142;9.124;2024-03-02T00:18:46;98612.23;;;6.94;75.41
79174;BME280;68599;49.142;9.124;2024-03-02T00:21:13;98611.89;;;6.94;75.07
79174;BME280;68599;49.142;9.124;2024-03-02T00:23:41;98606.95;;;6.90;75.48
79174;BME280;68599;49.142;9.124;2024-03-02T00:26:11;98610.91;;;6.90;75.07
79174;BME280;68599;49.142;9.124;2024-03-02T00:28:39;98614.96;;;6.92;74.45
79174;BME280;68599;49.142;9.124;2024-03-02T00:31:11;98617.70;;;6.90;74.51
79174;BME280;68599;49.142;9.124;2024-03-02T00:33:41;98618.80;;;6.88;75.02
79174;BME280;68599;49.142;9.124;2024-03-02T00:36:10;98618.44;;;6.89;75.52
79174;BME280;68599;49.142;9.124;2024-03-02T00:38:51;98615.84;;;6.84;75.47
79174;BME280;68599;49.142;9.124;2024-03-02T00:41:23;98615.00;;;6.71;75.54
79174;BME280;68599;49.142;9.124;2024-03-02T00:43:57;98615.69;;;6.63;75.90
79174;BME280;68599;49.142;9.124;2024-03-02T00:46:24;98615.86;;;6.54;76.90
79174;BME280;68599;49.142;9.124;2024-03-02T00:48:56;98613.14;;;6.44;77.52
79174;BME280;68599;49.142;9.124;2024-03-02T00:51:25;98610.73;;;6.40;77.63
79174;BME280;68599;49.142;9.124;2024-03-02T00:53:53;98611.80;;;6.39;77.55
79174;BME280;68599;49.142;9.124;2024-03-02T00:56:24;98605.17;;;6.39;77.80
79174;BME280;68599;49.142;9.124;2024-03-02T00:58:50;98608.75;;;6.39;78.10
79174;BME280;68599;49.142;9.124;2024-03-02T01:01:18;98604.77;;;6.42;78.13
79174;BME280;68599;49.142;9.124;2024-03-02T01:03:46;98604.91;;;6.44;77.55
79174;BME280;68599;49.142;9.124;2024-03-02T01:06:13;98603.08;;;6.47;77.32
79174;BME280;68599;49.142;9.124;2024-03-02T01:08:40;98603.41;;;6.48;76.76
79174;BME280;68599;49.142;9.124;2024-03-02T01:11:06;98604.80;;;6.51;76.25
79174;BME280;68599;49.142;9.124;2024-03-02T01:13:33;98602.48;;;6.50;76.29
79174;BME280;68599;49.142;9.124;2024-03-02T01:16:00;98599.74;;;6.53;75.74
79174;BME280;68599;49.142;9.124;2024-03-02T01:18:27;98599.91;;;6.54;75.71
79174;BME280;68599;49.142;9.124;2024-03-02T01:20:54;98597.94;;;6.54;75.53
79174;BME280;68599;49.142;9.124;2024-03-02T01:23:24;98600.80;;;6.55;75.53
79174;BME280;68599;49.142;9.124;2024-03-02T01:25:51;98596.88;;;6.54;75.21
79174;BME280;68599;49.142;9.124;2024-03-02T01:28:19;98601.69;;;6.55;75.31
79174;BME280;68599;49.142;9.124;2024-03-02T01:30:47;98601.69;;;6.55;75.55
79174;BME280;68599;49.142;9.124;2024-03-02T01:33:14;98602.42;;;6.53;75.36
79174;BME280;68599;49.142;9.124;2024-03-02T01:35:41;98601.27;;;6.49;75.40
79174;BME280;68599;49.142;9.124;2024-03-02T01:38:07;98601.65;;;6.47;76.07
79174;BME280;68599;49.142;9.124;2024-03-02T01:40:34;98599.21;;;6.43;76.94
79174;BME280;68599;49.142;9.124;2024-03-02T01:43:01;98600.69;;;6.50;75.24
79174;BME280;68599;49.142;9.124;2024-03-02T01:45:28;98601.52;;;6.44;75.37
79174;BME280;68599;49.142;9.124;2024-03-02T01:47:56;98599.37;;;6.44;75.87
79174;BME280;68599;49.142;9.124;2024-03-02T01:50:31;98593.80;;;6.46;76.66
79174;BME280;68599;49.142;9.124;2024-03-02T01:52:59;98590.52;;;6.49;75.02
79174;BME280;68599;49.142;9.124;2024-03-02T01:55:26;98592.95;;;6.42;76.22
79174;BME280;68599;49.142;9.124;2024-03-02T01:57:55;98592.48;;;6.40;76.64
79174;BME280;68599;49.142;9.124;2024-03-02T02:00:22;98591.39;;;6.40;75.76
79174;BME280;68599;49.142;9.124;2024-03-02T02:02:51;98589.65;;;6.37;75.70
79174;BME280;68599;49.142;9.124;2024-03-02T02:05:18;98589.64;;;6.38;75.47
79174;BME280;68599;49.142;9.124;2024-03-02T02:07:45;98584.46;;;6.37;75.11
79174;BME280;68599;49.142;9.124;2024-03-02T02:10:11;98589.02;;;6.33;75.79
79174;BME280;68599;49.142;9.124;2024-03-02T02:12:38;98585.20;;;6.25;77.65
79174;BME280;68599;49.142;9.124;2024-03-02T02:15:24;98581.40;;;6.28;76.03
79174;BME280;68599;49.142;9.124;2024-03-02T02:17:51;98582.17;;;6.25;76.88
79174;BME280;68599;49.142;9.124;2024-03-02T02:20:18;98579.23;;;6.18;77.60
79174;BME280;68599;49.142;9.124;2024-03-02T02:23:02;98582.81;;;6.08;78.18
79174;BME280;68599;49.142;9.124;2024-03-02T02:25:29;98579.88;;;6.02;78.50
79174;BME280;68599;49.142;9.124;2024-03-02T02:27:57;98579.50;;;6.03;78.16
79174;BME280;68599;49.142;9.124;2024-03-02T02:30:30;98577.05;;;5.98;78.82
79174;BME280;68599;49.142;9.124;2024-03-02T02:32:57;98572.48;;;6.04;77.67
79174;BME280;68599;49.142;9.124;2024-03-02T02:35:25;98567.42;;;6.09;76.82
79174;BME280;68599;49.142;9.124;2024-03-02T02:37:54;98565.15;;;6.05;77.50
79174;BME280;68599;49.142;9.124;2024-03-02T02:40:22;98566.99;;;6.12;76.38
79174;BME280;68599;49.142;9.124;2024-03-02T02:42:49;98566.34;;;6.09;76.52
79174;BME280;68599;49.142;9.124;2024-03-02T02:45:18;98560.11;;;6.07;76.53
79174;BME280;68599;49.142;9.124;2024-03-02T02:47:45;98558.16;;;6.06;76.30
79174;BME280;68599;49.142;9.124;2024-03-02T02:50:12;98559.04;;;6.07;76.03
79174;BME280;68599;49.142;9.124;2024-03-02T02:52:39;98554.38;;;6.07;76.17
79174;BME280;68599;49.142;9.124;2024-03-02T02:55:08;98549.72;;;5.97;76.91
79174;BME280;68599;49.142;9.124;2024-03-02T02:57:35;98550.77;;;5.87;78.07
79174;BME280;68599;49.142;9.124;2024-03-02T03:00:05;98552.08;;;5.82;78.48
79174;BME280;68599;49.142;9.124;2024-03-02T03:02:37;98550.48;;;5.80;78.60
79174;BME280;68599;49.142;9.124;2024-03-02T03:05:09;98548.66;;;5.83;77.89
79174;BME280;68599;49.142;9.124;2024-03-02T03:07:36;98550.38;;;5.89;77.56
79174;BME280;68599;49.142;9.124;2024-03-02T03:10:04;98549.88;;;5.86;78.05
79174;BME280;68599;49.142;9.124;2024-03-02T03:12:33;98550.52;;;5.91;77.58
79174;BME280;68599;49.142;9.124;2024-03-02T03:15:01;98552.52;;;5.89;77.73
79174;BME280;68599;49.142;9.124;2024-03-02T03:17:28;98557.58;;;5.84;78.24
79174;BME280;68599;49.142;9.124;2024-03-02T03:19:55;98558.98;;;5.74;78.59
79174;BME280;68599;49.142;9.124;2024-03-02T03:22:22;98557.96;;;5.70;78.86
79174;BME280;68599;49.142;9.124;2024-03-02T03:24:48;98558.34;;;5.70;78.77
79174;BME280;68599;49.142;9.124;2024-03-02T03:27:15;98562.76;;;5.60;79.24
79174;BME280;68599;49.142;9.124;2024-03-02T03:29:41;98562.46;;;5.57;79.40
79174;BME280;68599;49.142;9.124;2024-03-02T03:32:08;98558.39;;;5.54;79.72
79174;BME280;68599;49.142;9.124;2024-03-02T03:34:34;98560.21;;;5.51;79.79
79174;BME280;68599;49.142;9.124;2024-03-02T03:37:02;98559.30;;;5.53;79.47
79174;BME280;68599;49.142;9.124;2024-03-02T03:39:29;98556.61;;;5.54;79.57
79174;BME280;68599;49.142;9.124;2024-03-02T03:41:55;98555.63;;;5.47;79.93
79174;BME280;68599;49.142;9.124;2024-03-02T03:44:22;98556.55;;;5.45;79.91
79174;BME280;68599;49.142;9.124;2024-03-02T03:46:48;98551.61;;;5.41;80.21
79174;BME280;68599;49.142;9.124;2024-03-02T03:49:15;98551.96;;;5.41;80.19
79174;BME280;68599;49.142;9.124;2024-03-02T03:51:41;98554.27;;;5.42;79.96
79174;BME280;68599;49.142;9.124;2024-03-02T03:54:08;98553.29;;;5.49;79.35
79174;BME280;68599;49.142;9.124;2024-03-02T03:56:34;98554.48;;;5.52;79.06
79174;BME280;68599;49.142;9.124;2024-03-02T03:59:01;98555.05;;;5.50;78.78
79174;BME280;68599;49.142;9.124;2024-03-02T04:01:28;98557.41;;;5.48;79.05
79174;BME280;68599;49.142;9.124;2024-03-02T04:03:54;98557.29;;;5.44;78.96
79174;BME280;68599;49.142;9.124;2024-03-02T04:06:21;98556.95;;;5.43;78.97
79174;BME280;68599;49.142;9.124;2024-03-02T04:08:48;98557.84;;;5.43;78.85
79174;BME280;68599;49.142;9.124;2024-03-02T04:11:14;98555.85;;;5.45;78.69
79174;BME280;68599;49.142;9.124;2024-03-02T04:13:41;98554.73;;;5.47;78.45
79174;BME280;68599;49.142;9.124;2024-03-02T04:16:07;98554.40;;;5.45;78.38
79174;BME280;68599;49.142;9.124;2024-03-02T04:18:34;98551.41;;;5.42;78.62
79174;BME280;68599;49.142;9.124;2024-03-02T04:21:01;98553.52;;;5.45;78.44
79174;BME280;68599;49.142;9.124;2024-03-02T04:23:28;98556.90;;;5.45;78.38
79174;BME280;68599;49.142;9.124;2024-03-02T04:25:54;98556.20;;;5.44;78.21
79174;BME280;68599;49.142;9.124;2024-03-02T04:28:21;98559.45;;;5.43;78.42
79174;BME280;68599;49.142;9.124;2024-03-02T04:30:47;98557.64;;;5.44;78.34
79174;BME280;68599;49.142;9.124;2024-03-02T04:33:14;98555.16;;;5.43;78.04
79174;BME280;68599;49.142;9.124;2024-03-02T04:35:41;98561.45;;;5.39;78.68
79174;BME280;68599;49.142;9.124;2024-03-02T04:38:08;98559.09;;;5.44;78.51
79174;BME280;68599;49.142;9.124;2024-03-02T04:40:34;98557.31;;;5.42;78.80
79174;BME280;68599;49.142;9.124;2024-03-02T04:43:01;98559.08;;;5.43;78.60
79174;BME280;68599;49.142;9.124;2024-03-02T04:45:27;98557.83;;;5.44;78.63
79174;BME280;68599;49.142;9.124;2024-03-02T04:47:54;98560.45;;;5.47;78.57
79174;BME280;68599;49.142;9.124;2024-03-02T04:50:20;98563.14;;;5.46;78.49
79174;BME280;68599;49.142;9.124;2024-03-02T04:52:47;98561.30;;;5.50;78.58
79174;BME280;68599;49.142;9.124;2024-03-02T04:55:13;98559.05;;;5.45;78.75
79174;BME280;68599;49.142;9.124;2024-03-02T04:57:43;98557.84;;;5.56;78.14
79174;BME280;68599;49.142;9.124;2024-03-02T05:00:10;98552.64;;;5.56;77.93
79174;BME280;68599;49.142;9.124;2024-03-02T05:02:37;98552.89;;;5.51;77.99
79174;BME280;68599;49.142;9.124;2024-03-02T05:05:03;98553.05;;;5.53;78.04
79174;BME280;68599;49.142;9.124;2024-03-02T05:07:30;98556.70;;;5.48;78.51
79174;BME280;68599;49.142;9.124;2024-03-02T05:09:56;98555.66;;;5.45;78.66
79174;BME280;68599;49.142;9.124;2024-03-02T05:12:23;98560.47;;;5.46;78.48
79174;BME280;68599;49.142;9.124;2024-03-02T05:15:15;98560.40;;;5.38;78.66
79174;BME280;68599;49.142;9.124;2024-03-02T05:17:42;98564.36;;;5.37;78.75
79174;BME280;68599;49.142;9.124;2024-03-02T05:20:10;98561.54;;;5.34;79.03
79174;BME280;68599;49.142;9.124;2024-03-02T05:22:37;98559.38;;;5.35;78.89
79174;BME280;68599;49.142;9.124;2024-03-02T05:25:05;98559.05;;;5.32;78.87
79174;BME280;68599;49.142;9.124;2024-03-02T05:27:32;98557.18;;;5.39;78.56
79174;BME280;68599;49.142;9.124;2024-03-02T05:30:00;98556.05;;;5.43;78.78
79174;BME280;68599;49.142;9.124;2024-03-02T05:32:26;98560.68;;;5.43;78.47
79174;BME280;68599;49.142;9.124;2024-03-02T05:34:53;98560.77;;;5.50;78.23
79174;BME280;68599;49.142;9.124;2024-03-02T05:37:20;98567.36;;;5.52;77.89
79174;BME280;68599;49.142;9.124;2024-03-02T05:39:46;98565.86;;;5.45;78.45
79174;BME280;68599;49.142;9.124;2024-03-02T05:42:13;98572.20;;;5.51;78.07
79174;BME280;68599;49.142;9.124;2024-03-02T05:44:39;98570.88;;;5.55;77.89
79174;BME280;68599;49.142;9.124;2024-03-02T05:47:06;98566.29;;;5.64;77.93
79174;BME280;68599;49.142;9.124;2024-03-02T05:49:35;98568.72;;;5.68;77.63
79174;BME280;68599;49.142;9.124;2024-03-02T05:52:02;98566.34;;;5.72;77.54
79174;BME280;68599;49.142;9.124;2024-03-02T05:54:29;98568.82;;;5.73;77.29
79174;BME280;68599;49.142;9.124;2024-03-02T05:56:56;98568.31;;;5.71;77.26
79174;BME280;68599;49.142;9.124;2024-03-02T05:59:22;98572.95;;;5.71;77.57
79174;BME280;68599;49.142;9.124;2024-03-02T06:01:49;98573.42;;;5.76;77.25
79174;BME280;68599;49.142;9.124;2024-03-02T06:04:18;98573.60;;;5.76;77.39
79174;BME280;68599;49.142;9.124;2024-03-02T06:06:45;98575.81;;;5.84;77.14
79174;BME280;68599;49.142;9.124;2024-03-02T06:09:12;98583.27;;;5.91;77.08
79174;BME280;68599;49.142;9.124;2024-03-02T06:11:40;98590.45;;;6.00;76.80
79174;BME280;68599;49.142;9.124;2024-03-02T06:14:08;98599.14;;;6.15;76.42
79174;BME280;68599;49.142;9.124;2024-03-02T06:16:35;98607.23;;;6.12;75.66
79174;BME280;68599;49.142;9.124;2024-03-02T06:19:01;98608.38;;;6.07;75.76
79174;BME280;68599;49.142;9.124;2024-03-02T06:21:28;98609.60;;;6.10;75.71
79174;BME280;68599;49.142;9.124;2024-03-02T06:23:55;98608.76;;;6.07;75.24
79174;BME280;68599;49.142;9.124;2024-03-02T06:26:23;98603.48;;;6.01;75.27
79174;BME280;68599;49.142;9.124;2024-03-02T06:28:51;98604.95;;;5.98;75.17
79174;BME280;68599;49.142;9.124;2024-03-02T06:31:18;98601.25;;;5.95;75.70
79174;BME280;68599;49.142;9.124;2024-03-02T06:33:45;98600.84;;;5.98;75.48
79174;BME280;68599;49.142;9.124;2024-03-02T06:36:12;98599.88;;;6.02;75.59
79174;BME280;68599;49.142;9.124;2024-03-02T06:38:38;98598.85;;;6.11;75.31
79174;BME280;68599;49.142;9.124;2024-03-02T06:41:09;98596.64;;;6.15;75.18
79174;BME280;68599;49.142;9.124;2024-03-02T06:43:35;98596.70;;;6.22;75.11
79174;BME280;68599;49.142;9.124;2024-03-02T06:46:02;98599.27;;;6.29;75.18
79174;BME280;68599;49.142;9.124;2024-03-02T06:48:29;98599.13;;;6.37;74.99
79174;BME280;68599;49.142;9.124;2024-03-02T06:50:57;98601.02;;;6.42;74.80
79174;BME280;68599;49.142;9.124;2024-03-02T06:53:24;98602.96;;;6.44;74.66
79174;BME280;68599;49.142;9.124;2024-03-02T06:55:51;98606.77;;;6.51;74.46
79174;BME280;68599;49.142;9.124;2024-03-02T06:58:18;98610.83;;;6.54;74.18
79174;BME280;68599;49.142;9.124;2024-03-02T07:00:44;98613.09;;;6.68;74.03
79174;BME280;68599;49.142;9.124;2024-03-02T07:03:11;98620.30;;;6.76;73.69
79174;BME280;68599;49.142;9.124;2024-03-02T07:05:38;98616.56;;;6.73;73.74
79174;BME280;68599;49.142;9.124;2024-03-02T07:08:05;98614.94;;;6.84;73.71
79174;BME280;68599;49.142;9.124;2024-03-02T07:10:32;98619.20;;;6.96;73.48
79174;BME280;68599;49.142;9.124;2024-03-02T07:12:58;98618.68;;;7.04;73.27
79174;BME280;68599;49.142;9.124;2024-03-02T07:15:26;98619.45;;;7.10;72.99
79174;BME280;68599;49.142;9.124;2024-03-02T07:18:31;98613.59;;;7.17;72.83
79174;BME280;68599;49.142;9.124;2024-03-02T07:20:58;98609.66;;;7.25;72.95
79174;BME280;68599;49.142;9.124;2024-03-02T07:23:27;98606.21;;;7.26;72.26
79174;BME280;68599;49.142;9.124;2024-03-02T07:25:53;98607.78;;;7.21;71.56
79174;BME280;68599;49.142;9.124;2024-03-02T07:28:26;98607.20;;;7.40;71.83
79174;BME280;68599;49.142;9.124;2024-03-02T07:33:27;98611.36;;;7.64;70.92
79174;BME280;68599;49.142;9.124;2024-03-02T07:35:54;98610.39;;;7.41;73.12
79174;BME280;68599;49.142;9.124;2024-03-02T07:38:22;98612.23;;;7.40;73.05
79174;BME280;68599;49.142;9.124;2024-03-02T07:40:49;98611.11;;;7.42;73.08
79174;BME280;68599;49.142;9.124;2024-03-02T07:43:20;98608.68;;;7.47;73.30
79174;BME280;68599;49.142;9.124;2024-03-02T07:45:47;98608.33;;;7.55;72.76
79174;BME280;68599;49.142;9.124;2024-03-02T07:48:14;98611.52;;;7.39;73.27
79174;BME280;68599;49.142;9.124;2024-03-02T07:50:41;98611.38;;;7.37;73.44
79174;BME280;68599;49.142;9.124;2024-03-02T07:53:09;98612.42;;;7.39;73.27
79174;BME280;68599;49.142;9.124;2024-03-02T07:55:35;98618.55;;;7.29;73.71
79174;BME280;68599;49.142;9.124;2024-03-02T07:58:02;98626.45;;;7.19;73.88
79174;BME280;68599;49.142;9.124;2024-03-02T08:00:29;98620.81;;;7.23;73.75
79174;BME280;68599;49.142;9.124;2024-03-02T08:02:56;98628.32;;;7.15;74.16
79174;BME280;68599;49.142;9.124;2024-03-02T08:05:22;98625.02;;;7.27;73.60
79174;BME280;68599;49.142;9.124;2024-03-02T08:07:49;98625.67;;;7.30;73.98
79174;BME280;68599;49.142;9.124;2024-03-02T08:10:19;98620.47;;;7.48;73.64
79174;BME280;68599;49.142;9.124;2024-03-02T08:12:46;98620.30;;;7.64;72.85
79174;BME280;68599;49.142;9.124;2024-03-02T08:15:13;98624.13;;;7.78;72.01
79174;BME280;68599;49.142;9.124;2024-03-02T08:17:40;98618.31;;;7.81;71.60
79174;BME280;68599;49.142;9.124;2024-03-02T08:20:15;98615.75;;;7.84;71.76
79174;BME280;68599;49.142;9.124;2024-03-02T08:22:41;98617.65;;;7.79;71.70
79174;BME280;68599;49.142;9.124;2024-03-02T08:25:08;98620.02;;;7.69;72.06
79174;BME280;68599;49.142;9.124;2024-03-02T08:27:36;98620.59;;;7.75;71.74
79174;BME280;68599;49.142;9.124;2024-03-02T08:30:04;98615.14;;;7.87;71.32
79174;BME280;68599;49.142;9.124;2024-03-02T08:32:33;98612.52;;;7.99;70.88
79174;BME280;68599;49.142;9.124;2024-03-02T08:35:00;98617.55;;;8.14;70.17
79174;BME280;68599;49.142;9.124;2024-03-02T08:37:26;98617.95;;;8.50;69.40
79174;BME280;68599;49.142;9.124;2024-03-02T08:39:53;98617.61;;;9.04;67.45
79174;BME280;68599;49.142;9.124;2024-03-02T08:42:21;98616.73;;;9.90;65.40
79174;BME280;68599;49.142;9.124;2024-03-02T08:44:48;98614.30;;;11.46;60.52
79174;BME280;68599;49.142;9.124;2024-03-02T08:47:15;98608.33;;;13.41;56.07
79174;BME280;68599;49.142;9.124;2024-03-02T08:49:41;98600.86;;;14.99;48.87
79174;BME280;68599;49.142;9.124;2024-03-02T08:52:08;98593.71;;;16.87;46.79
79174;BME280;68599;49.142;9.124;2024-03-02T08:54:35;98582.05;;;18.36;42.95
79174;BME280;68599;49.142;9.124;2024-03-02T08:57:02;98576.92;;;19.52;38.26
79174;BME280;68599;49.142;9.124;2024-03-02T08:59:28;98577.52;;;19.31;37.36
79174;BME280;68599;49.142;9.124;2024-03-02T09:01:55;98570.58;;;19.46;36.50
79174;BME280;68599;49.142;9.124;2024-03-02T09:04:21;98570.20;;;20.33;35.70
79174;BME280;68599;49.142;9.124;2024-03-02T09:06:52;98566.05;;;20.37;34.17
79174;BME280;68599;49.142;9.124;2024-03-02T09:09:18;98563.56;;;20.26;34.54
79174;BME280;68599;49.142;9.124;2024-03-02T09:11:46;98563.81;;;21.26;33.80
79174;BME280;68599;49.142;9.124;2024-03-02T09:14:13;98559.52;;;21.56;32.30
79174;BME280;68599;49.142;9.124;2024-03-02T09:16:42;98558.31;;;21.94;31.34
79174;BME280;68599;49.142;9.124;2024-03-02T09:19:09;98562.54;;;21.96;30.78
79174;BME280;68599;49.142;9.124;2024-03-02T09:21:37;98560.56;;;22.42;30.52
79174;BME280;68599;49.142;9.124;2024-03-02T09:24:04;98564.44;;;22.33;30.00
79174;BME280;68599;49.142;9.124;2024-03-02T09:26:33;98566.91;;;22.87;29.11
79174;BME280;68599;49.142;9.124;2024-03-02T09:28:59;98561.05;;;22.58;29.44
79174;BME280;68599;49.142;9.124;2024-03-02T09:31:25;98561.20;;;22.84;28.46
79174;BME280;68599;49.142;9.124;2024-03-02T09:33:52;98561.40;;;22.63;29.38
79174;BME280;68599;49.142;9.124;2024-03-02T09:36:22;98554.80;;;23.80;27.62
79174;BME280;68599;49.142;9.124;2024-03-02T09:38:49;98553.37;;;23.72;27.05
79174;BME280;68599;49.142;9.124;2024-03-02T09:41:16;98553.64;;;24.78;26.28
79174;BME280;68599;49.142;9.124;2024-03-02T09:43:43;98545.58;;;25.70;24.90
79174;BME280;68599;49.142;9.124;2024-03-02T09:46:10;98545.58;;;25.94;24.29
79174;BME280;68599;49.142;9.124;2024-03-02T09:48:37;98544.19;;;25.58;24.32
79174;BME280;68599;49.142;9.124;2024-03-02T09:51:04;98544.23;;;24.00;25.59
79174;BME280;68599;49.142;9.124;2024-03-02T09:53:32;98543.90;;;23.79;25.88
79174;BME280;68599;49.142;9.124;2024-03-02T09:56:00;98542.79;;;24.94;24.90
79174;BME280;68599;49.142;9.124;2024-03-02T09:58:27;98547.38;;;24.85;24.25
79174;BME280;68599;49.142;9.124;2024-03-02T10:00:54;98543.71;;;26.26;23.45
79174;BME280;68599;49.142;9.124;2024-03-02T10:03:22;98544.20;;;26.54;22.48
79174;BME280;68599;49.142;9.124;2024-03-02T10:05:49;98540.86;;;26.49;22.59
79174;BME280;68599;49.142;9.124;2024-03-02T10:08:16;98537.13;;;26.64;22.54
79174;BME280;68599;49.142;9.124;2024-03-02T10:10:42;98533.05;;;26.49;22.64
79174;BME280;68599;49.142;9.124;2024-03-02T10:13:11;98529.63;;;28.52;20.62
79174;BME280;68599;49.142;9.124;2024-03-02T10:15:39;98524.28;;;27.14;21.32
79174;BME280;68599;49.142;9.124;2024-03-02T10:18:11;98519.38;;;28.56;20.54
79174;BME280;68599;49.142;9.124;2024-03-02T10:20:39;98515.27;;;28.58;19.60
79174;BME280;68599;49.142;9.124;2024-03-02T10:23:10;98515.33;;;28.17;20.12
79174;BME280;68599;49.142;9.124;2024-03-02T10:25:37;98516.98;;;27.89;20.39
79174;BME280;68599;49.142;9.124;2024-03-02T10:28:16;98511.94;;;28.70;19.95
79174;BME280;68599;49.142;9.124;2024-03-02T10:30:47;98514.40;;;28.54;19.70
79174;BME280;68599;49.142;9.124;2024-03-02T10:33:14;98511.08;;;29.13;19.44
79174;BME280;68599;49.142;9.124;2024-03-02T10:35:41;98509.98;;;29.18;19.34
79174;BME280;68599;49.142;9.124;2024-03-02T10:38:11;98505.96;;;29.44;18.93
79174;BME280;68599;49.142;9.124;2024-03-02T10:40:37;98503.94;;;29.43;19.09
79174;BME280;68599;49.142;9.124;2024-03-02T10:43:04;98506.06;;;28.65;19.31
79174;BME280;68599;49.142;9.124;2024-03-02T10:45:32;98501.98;;;29.47;19.04
79174;BME280;68599;49.142;9.124;2024-03-02T10:48:01;98495.78;;;28.75;19.66
79174;BME280;68599;49.142;9.124;2024-03-02T10:50:28;98494.30;;;29.12;19.60
79174;BME280;68599;49.142;9.124;2024-03-02T10:52:56;98495.06;;;27.72;20.68
79174;BME280;68599;49.142;9.124;2024-03-02T10:55:23;98490.08;;;26.93;21.87
79174;BME280;68599;49.142;9.124;2024-03-02T10:57:52;98482.39;;;28.42;20.61
79174;BME280;68599;49.142;9.124;2024-03-02T11:00:20;98477.60;;;28.99;19.89
79174;BME280;68599;49.142;9.124;2024-03-02T11:02:58;98473.03;;;29.26;19.28
79174;BME280;68599;49.142;9.124;2024-03-02T11:05:31;98469.83;;;30.30;19.11
79174;BME280;68599;49.142;9.124;2024-03-02T11:08:02;98466.70;;;30.40;18.22
79174;BME280;68599;49.142;9.124;2024-03-02T11:10:35;98469.58;;;30.87;17.86
79174;BME280;68599;49.142;9.124;2024-03-02T11:13:09;98461.38;;;31.71;18.00
79174;BME280;68599;49.142;9.124;2024-03-02T11:15:35;98457.26;;;31.58;17.47
79174;BME280;68599;49.142;9.124;2024-03-02T11:18:06;98454.42;;;31.32;17.64
79174;BME280;68599;49.142;9.124;2024-03-02T11:20:39;98455.06;;;31.57;17.88
79174;BME280;68599;49.142;9.124;2024-03-02T11:23:07;98452.42;;;32.96;16.92
79174;BME280;68599;49.142;9.124;2024-03-02T11:25:34;98449.71;;;33.64;16.20
79174;BME280;68599;49.142;9.124;2024-03-02T11:28:03;98446.48;;;33.54;16.41
79174;BME280;68599;49.142;9.124;2024-03-02T11:33:02;98433.20;;;33.36;16.03
79174;BME280;68599;49.142;9.124;2024-03-02T11:35:41;98433.44;;;33.96;16.03
79174;BME280;68599;49.142;9.124;2024-03-02T11:38:11;98433.23;;;34.27;15.82
79174;BME280;68599;49.142;9.124;2024-03-02T11:40:41;98430.45;;;34.67;15.94
79174;BME280;68599;49.142;9.124;2024-03-02T11:43:08;98420.90;;;34.33;15.38
79174;BME280;68599;49.142;9.124;2024-03-02T11:45:36;98417.73;;;33.48;15.80
79174;BME280;68599;49.142;9.124;2024-03-02T11:48:14;98417.66;;;34.23;15.56
79174;BME280;68599;49.142;9.124;2024-03-02T11:50:49;98411.80;;;33.99;15.60
79174;BME280;68599;49.142;9.124;2024-03-02T11:53:17;98407.86;;;34.42;15.41
79174;BME280;68599;49.142;9.124;2024-03-02T11:55:45;98396.71;;;34.74;14.97
79174;BME280;68599;49.142;9.124;2024-03-02T11:58:15;98388.13;;;34.10;15.13
79174;BME280;68599;49.142;9.124;2024-03-02T12:00:51;98381.56;;;33.19;15.98
79174;BME280;68599;49.142;9.124;2024-03-02T12:03:21;98378.45;;;33.65;15.61
79174;BME280;68599;49.142;9.124;2024-03-02T12:05:50;98371.48;;;33.31;15.61
79174;BME280;68599;49.142;9.124;2024-03-02T12:08:17;98365.15;;;33.06;15.96
79174;BME280;68599;49.142;9.124;2024-03-02T12:10:55;98357.98;;;32.93;16.46
79174;BME280;68599;49.142;9.124;2024-03-02T12:13:23;98354.29;;;34.26;15.51
79174;BME280;68599;49.142;9.124;2024-03-02T12:15:53;98351.67;;;33.53;15.34
79174;BME280;68599;49.142;9.124;2024-03-02T12:18:20;98353.04;;;33.36;15.90
79174;BME280;68599;49.142;9.124;2024-03-02T12:20:48;98351.12;;;32.36;15.99
79174;BME280;68599;49.142;9.124;2024-03-02T12:23:15;98347.45;;;31.71;16.71
79174;BME280;68599;49.142;9.124;2024-03-02T12:25:43;98346.66;;;31.06;16.96
79174;BME280;68599;49.142;9.124;2024-03-02T12:28:11;98344.71;;;29.94;17.44
79174;BME280;68599;49.142;9.124;2024-03-02T12:30:37;98338.20;;;30.12;17.78
79174;BME280;68599;49.142;9.124;2024-03-02T12:33:05;98342.14;;;28.93;18.52
79174;BME280;68599;49.142;9.124;2024-03-02T12:35:31;98337.69;;;29.08;18.28
79174;BME280;68599;49.142;9.124;2024-03-02T12:37:58;98338.27;;;27.81;19.78
79174;BME280;68599;49.142;9.124;2024-03-02T12:40:24;98335.65;;;28.00;19.87
79174;BME280;68599;49.142;9.124;2024-03-02T12:42:51;98337.37;;;28.06;19.53
79174;BME280;68599;49.142;9.124;2024-03-02T12:45:18;98335.31;;;27.21;19.96
79174;BME280;68599;49.142;9.124;2024-03-02T12:47:52;98336.25;;;27.03;21.00
79174;BME280;68599;49.142;9.124;2024-03-02T12:50:20;98332.30;;;27.68;20.34
79174;BME280;68599;49.142;9.124;2024-03-02T12:52:53;98326.74;;;28.57;19.90
79174;BME280;68599;49.142;9.124;2024-03-02T12:55:21;98322.69;;;29.22;18.93
79174;BME280;68599;49.142;9.124;2024-03-02T12:57:50;98323.35;;;29.88;17.99
79174;BME280;68599;49.142;9.124;2024-03-02T13:00:19;98324.52;;;29.54;18.10
79174;BME280;68599;49.142;9.124;2024-03-02T13:02:46;98318.79;;;30.10;17.86
79174;BME280;68599;49.142;9.124;2024-03-02T13:05:14;98320.14;;;30.12;17.16
79174;BME280;68599;49.142;9.124;2024-03-02T13:07:41;98318.34;;;29.72;17.36
79174;BME280;68599;49.142;9.124;2024-03-02T13:10:08;98314.97;;;29.34;17.61
79174;BME280;68599;49.142;9.124;2024-03-02T13:12:36;98313.23;;;29.33;17.86
79174;BME280;68599;49.142;9.124;2024-03-02T13:15:04;98310.77;;;29.08;17.85
79174;BME280;68599;49.142;9.124;2024-03-02T13:17:34;98309.28;;;28.87;18.20